Weather at Black Diamond/Flying R Ranch Airport

Public forecast

Using degrees Celsius for public forecast. Weather courtesy of forecast.io.

Closest aviation weather report (METAR) to Black Diamond/Flying R Ranch Airport

Closest report is Calgary / Springbank Airport, 28.3 nm (52.3 km) NNW.

2024/05/30 03:22 (retrieved 11 minutes ago)

CYBW 300322Z AUTO 35013KT 280V350 9SM SCT096 SCT120 08/M03 A2990 RMK LTNG DIST NE PRESRR SLP147

Closest aviation forecast (TAF) to Black Diamond/Flying R Ranch Airport

Forecast is more than 6 hours old.

Closest forecast is Edmonton (CFB Namao) Heliport, 183.5 nm (339.8 km) N.

2024/05/29 18:30 Ammendment (retrieved 9 hours ago)

TAF AMD TAF AMD CYED 292328Z 2918/3006 CNL RMK END OF FLY PROGRAM NXT FCST BY 300000Z